createdAt,value
2023-05-14T00:00:10.798Z,97315.56
2023-05-14T00:02:38.587Z,97306.00
2023-05-14T00:05:07.268Z,97287.88
2023-05-14T00:07:35.174Z,97297.59
2023-05-14T00:10:03.009Z,97314.25
2023-05-14T00:12:31.099Z,97328.25
2023-05-14T00:15:00.754Z,97318.84
2023-05-14T00:17:28.697Z,97310.28
2023-05-14T00:19:56.561Z,97293.13
2023-05-14T00:22:24.360Z,97281.22
2023-05-14T00:24:52.104Z,97258.81
2023-05-14T00:27:19.993Z,97241.84
2023-05-14T00:29:47.948Z,97214.63
2023-05-14T00:32:17.105Z,97206.88
2023-05-14T00:34:44.880Z,97202.75
2023-05-14T00:37:12.621Z,97189.06
2023-05-14T00:39:40.416Z,97174.56
2023-05-14T00:42:08.312Z,97151.31
2023-05-14T00:44:36.813Z,97143.75
2023-05-14T00:47:05.330Z,97137.81
2023-05-14T00:49:35.320Z,97129.25
2023-05-14T00:52:03.603Z,97125.94
2023-05-14T00:54:31.868Z,97109.66
2023-05-14T00:57:00.970Z,97092.69
2023-05-14T00:59:28.898Z,97076.19
2023-05-14T01:01:56.913Z,97063.50
2023-05-14T01:04:25.115Z,97056.09
2023-05-14T01:07:08.282Z,97028.44
2023-05-14T01:09:43.682Z,97028.09
2023-05-14T01:12:20.406Z,97003.06
2023-05-14T01:14:55.849Z,97000.59
2023-05-14T01:17:29.968Z,96975.22
2023-05-14T01:19:58.771Z,96978.50
2023-05-14T01:22:27.980Z,96969.97
2023-05-14T01:24:56.063Z,96965.53
2023-05-14T01:27:29.732Z,96956.16
2023-05-14T01:30:04.161Z,96955.47
2023-05-14T01:32:33.359Z,96947.91
2023-05-14T01:35:02.377Z,96938.53
2023-05-14T01:37:33.628Z,96925.69
2023-05-14T01:40:02.250Z,96914.00
2023-05-14T01:42:30.730Z,96910.41
2023-05-14T01:44:59.085Z,96915.66
2023-05-14T01:47:26.897Z,96911.22
2023-05-14T01:49:54.683Z,96906.28
2023-05-14T01:52:22.542Z,96854.88
2023-05-14T01:54:51.731Z,96895.09
2023-05-14T01:57:19.535Z,96888.47
2023-05-14T01:59:47.349Z,96890.81
2023-05-14T02:02:15.133Z,96869.06
2023-05-14T02:04:42.983Z,96854.13
2023-05-14T02:07:10.763Z,96837.84
2023-05-14T02:09:38.707Z,96831.25
2023-05-14T02:12:09.150Z,96826.16
2023-05-14T02:14:37.017Z,96822.84
2023-05-14T02:17:04.900Z,96809.72
2023-05-14T02:19:32.734Z,96802.00
2023-05-14T02:22:01.159Z,96799.69
2023-05-14T02:24:29.038Z,96799.03
2023-05-14T02:26:56.834Z,96792.78
2023-05-14T02:29:26.273Z,96794.59
2023-05-14T02:31:56.946Z,96797.66
2023-05-14T02:34:24.984Z,96789.44
2023-05-14T02:36:55.449Z,96798.69
2023-05-14T02:39:23.858Z,96812.66
2023-05-14T02:41:51.665Z,96807.06
2023-05-14T02:44:19.445Z,96821.38
2023-05-14T02:46:48.946Z,96824.16
2023-05-14T02:49:16.760Z,96814.97
2023-05-14T02:51:44.676Z,96834.88
2023-05-14T02:54:12.506Z,96852.78
2023-05-14T02:56:40.501Z,96860.50
2023-05-14T02:59:08.259Z,96876.78
2023-05-14T03:01:36.514Z,96894.72
2023-05-14T03:04:06.533Z,96890.44
2023-05-14T03:06:34.311Z,96926.16
2023-05-14T03:09:02.087Z,96944.09
2023-05-14T03:11:29.956Z,96967.13
2023-05-14T03:13:57.851Z,96987.72
2023-05-14T03:16:25.803Z,97011.44
2023-05-14T03:18:53.734Z,97039.59
2023-05-14T03:21:22.982Z,97068.72
2023-05-14T03:23:50.887Z,97082.09
2023-05-14T03:26:18.814Z,97098.22
2023-05-14T03:28:46.865Z,97133.50
2023-05-14T03:31:14.709Z,97153.25
2023-05-14T03:33:43.536Z,97177.97
2023-05-14T03:36:11.462Z,97200.88
2023-05-14T03:38:40.721Z,97228.28
2023-05-14T03:41:08.619Z,97260.75
2023-05-14T03:43:36.674Z,97293.38
2023-05-14T03:46:04.497Z,97320.59
2023-05-14T03:48:32.679Z,97351.31
2023-05-14T03:51:00.803Z,97390.72
2023-05-14T03:53:28.917Z,97430.97
2023-05-14T03:55:58.112Z,97472.94
2023-05-14T03:58:28.642Z,97511.41
2023-05-14T04:00:56.791Z,97557.50
2023-05-14T04:03:25.079Z,97618.63
2023-05-14T04:05:53.059Z,97663.94
2023-05-14T04:08:20.932Z,97710.22
2023-05-14T04:10:48.927Z,97764.28
2023-05-14T04:13:18.207Z,97811.97
2023-05-14T04:15:46.122Z,97863.44
2023-05-14T04:18:14.109Z,97931.28
2023-05-14T04:20:41.962Z,98012.09
2023-05-14T04:23:09.761Z,98093.47
2023-05-14T04:25:37.806Z,98197.41
2023-05-14T04:28:06.003Z,98309.91
2023-05-14T04:30:35.320Z,98450.03
2023-05-14T04:33:04.154Z,98623.34
2023-05-14T04:35:31.955Z,98762.06
2023-05-14T04:38:00.818Z,98911.22
2023-05-14T04:40:28.805Z,99055.66
2023-05-14T04:42:57.116Z,99199.09
2023-05-14T04:45:25.073Z,99357.16
2023-05-14T04:47:55.201Z,99470.56
2023-05-14T04:50:23.418Z,99590.22
2023-05-14T04:52:51.408Z,99719.53
2023-05-14T04:55:19.337Z,99836.56
2023-05-14T04:57:47.093Z,99953.94
2023-05-14T05:00:15.796Z,100066.06
2023-05-14T05:02:43.824Z,100162.50
2023-05-14T05:05:13.039Z,100268.72
2023-05-14T05:07:40.874Z,100373.19
2023-05-14T05:10:09.934Z,100456.09
2023-05-14T05:12:37.816Z,100569.38
2023-05-14T05:15:06.339Z,100667.22
2023-05-14T05:17:34.434Z,100756.09
2023-05-14T05:20:02.478Z,100831.22
2023-05-14T05:22:31.933Z,100938.78
2023-05-14T05:25:00.064Z,101014.81
2023-05-14T05:27:28.472Z,101081.50
2023-05-14T05:29:56.298Z,101140.03
2023-05-14T05:32:24.717Z,101226.00
2023-05-14T05:34:52.911Z,101327.50
2023-05-14T05:37:20.850Z,101386.22
2023-05-14T05:39:50.007Z,101492.06
2023-05-14T05:42:17.840Z,101591.38
2023-05-14T05:44:45.749Z,101621.16
2023-05-14T05:47:13.700Z,101682.69
2023-05-14T05:49:41.507Z,101809.25
2023-05-14T05:52:10.344Z,101920.84
2023-05-14T05:54:39.840Z,102071.16
2023-05-14T05:57:09.089Z,102145.34
2023-05-14T05:59:37.367Z,102203.25
2023-05-14T06:02:06.397Z,102342.53
2023-05-14T06:04:34.313Z,102466.06
2023-05-14T06:07:06.144Z,102525.97
2023-05-14T06:09:33.924Z,102619.47
2023-05-14T06:12:01.870Z,102714.75
2023-05-14T06:14:31.647Z,102783.75
2023-05-14T06:16:59.843Z,102821.81
2023-05-14T06:19:27.871Z,102725.00
2023-05-14T06:21:56.078Z,102731.13
2023-05-14T06:24:23.907Z,102741.72
2023-05-14T06:26:51.701Z,102854.94
2023-05-14T06:29:19.557Z,102797.47
2023-05-14T06:31:48.775Z,102802.34
2023-05-14T06:34:16.670Z,102864.00
2023-05-14T06:36:44.572Z,102943.47
2023-05-14T06:39:12.512Z,102925.09
2023-05-14T06:41:40.348Z,103068.38
2023-05-14T06:44:08.188Z,103101.97
2023-05-14T06:46:36.082Z,103185.91
2023-05-14T06:49:05.399Z,103207.41
2023-05-14T06:51:33.330Z,103344.66
2023-05-14T06:54:01.635Z,103304.06
2023-05-14T06:56:29.394Z,103382.84
2023-05-14T06:58:57.356Z,103471.56
2023-05-14T07:01:25.098Z,103643.75
2023-05-14T07:03:53.059Z,103647.22
2023-05-14T07:06:22.485Z,103592.38
2023-05-14T07:08:50.431Z,103496.69
2023-05-14T07:11:18.279Z,103580.03
2023-05-14T07:13:46.137Z,103684.72
2023-05-14T07:16:14.062Z,103835.59
2023-05-14T07:18:41.906Z,103955.69
2023-05-14T07:21:09.807Z,104114.88
2023-05-14T07:23:39.386Z,104191.44
2023-05-14T07:26:07.734Z,104254.81
2023-05-14T07:28:35.988Z,104225.38
2023-05-14T07:31:05.091Z,104220.97
2023-05-14T07:33:32.897Z,104261.22
2023-05-14T07:36:00.783Z,104425.19
2023-05-14T07:38:28.840Z,104527.69
2023-05-14T07:40:58.516Z,104595.53
2023-05-14T07:43:27.243Z,104666.00
2023-05-14T07:45:55.633Z,104712.59
2023-05-14T07:48:23.582Z,104755.34
2023-05-14T07:50:51.655Z,104861.72
2023-05-14T07:53:19.543Z,104893.09
2023-05-14T07:55:48.466Z,104735.03
2023-05-14T07:58:17.662Z,104753.78
2023-05-14T08:00:45.983Z,104789.50
2023-05-14T08:03:15.021Z,104795.81
2023-05-14T08:05:43.630Z,104844.09
2023-05-14T08:08:13.450Z,104937.78
2023-05-14T08:10:41.856Z,105091.66
2023-05-14T08:13:09.711Z,105109.56
2023-05-14T08:15:38.807Z,105302.91
2023-05-14T08:18:06.861Z,105408.72
2023-05-14T08:20:34.804Z,105374.63
2023-05-14T08:23:02.627Z,105364.69
2023-05-14T08:25:30.648Z,105339.72
2023-05-14T08:27:59.818Z,105546.91
2023-05-14T08:30:28.135Z,105624.03
2023-05-14T08:32:57.834Z,105617.78
2023-05-14T08:35:25.852Z,105759.56
2023-05-14T08:37:53.668Z,106024.44
2023-05-14T08:40:22.156Z,106210.66
2023-05-14T08:42:55.266Z,106561.06
2023-05-14T08:45:28.043Z,106915.69
2023-05-14T08:47:59.589Z,107034.06
2023-05-14T08:50:28.064Z,107258.34
2023-05-14T08:52:56.302Z,107296.31
2023-05-14T08:55:26.088Z,107066.59
2023-05-14T08:57:54.278Z,107270.00
2023-05-14T09:00:23.270Z,107626.91
2023-05-14T09:02:52.457Z,107721.25
2023-05-14T09:05:23.410Z,107804.75
2023-05-14T09:07:51.281Z,107979.94
2023-05-14T09:10:21.075Z,107869.19
2023-05-14T09:12:49.079Z,107805.56
2023-05-14T09:15:17.115Z,107896.41
2023-05-14T09:17:46.467Z,108158.06
2023-05-14T09:20:14.534Z,108084.47
2023-05-14T09:22:43.826Z,108361.88
2023-05-14T09:25:13.248Z,108319.84
2023-05-14T09:27:42.425Z,108245.25
2023-05-14T09:30:12.028Z,108666.69
2023-05-14T09:32:40.801Z,108892.84
2023-05-14T09:35:14.727Z,109059.78
2023-05-14T09:37:45.243Z,109020.59
2023-05-14T09:40:14.348Z,108707.59
2023-05-14T09:42:42.567Z,108270.53
2023-05-14T09:45:11.575Z,108568.06
2023-05-14T09:47:40.469Z,108846.00
2023-05-14T09:50:09.251Z,109156.41
2023-05-14T09:52:37.338Z,109229.50
2023-05-14T09:55:08.033Z,109361.09
2023-05-14T09:57:36.023Z,109157.25
2023-05-14T10:00:04.478Z,109159.06
2023-05-14T10:02:38.048Z,109270.50
2023-05-14T10:05:08.202Z,109417.78
2023-05-14T10:07:41.711Z,109402.16
2023-05-14T10:10:16.499Z,109212.75
2023-05-14T10:12:50.584Z,109057.34
2023-05-14T10:15:24.096Z,108728.00
2023-05-14T10:17:59.959Z,109060.03
2023-05-14T10:20:28.792Z,109216.16
2023-05-14T10:22:57.813Z,109494.22
2023-05-14T10:25:27.519Z,109754.25
2023-05-14T10:27:55.763Z,109653.34
2023-05-14T10:30:24.276Z,109935.63
2023-05-14T10:33:07.774Z,110157.69
2023-05-14T10:35:58.265Z,109806.25
2023-05-14T10:38:28.491Z,109795.16
2023-05-14T10:41:03.413Z,109788.63
2023-05-14T10:43:32.366Z,109427.75
2023-05-14T10:46:01.533Z,109406.63
2023-05-14T10:48:30.206Z,109188.00
2023-05-14T10:50:58.795Z,109080.13
2023-05-14T10:53:37.721Z,109331.41
2023-05-14T10:56:08.417Z,109308.41
2023-05-14T10:58:37.122Z,109336.75
2023-05-14T11:01:06.586Z,109440.09
2023-05-14T11:03:41.193Z,109697.22
2023-05-14T11:06:09.687Z,108764.03
2023-05-14T11:08:38.312Z,107669.88
2023-05-14T11:11:08.010Z,107092.44
2023-05-14T11:13:36.473Z,107383.06
2023-05-14T11:16:19.006Z,108013.47
2023-05-14T11:18:55.196Z,108502.91
2023-05-14T11:21:23.559Z,108961.63
2023-05-14T11:23:51.479Z,109191.56
2023-05-14T11:26:21.833Z,109532.72
2023-05-14T11:28:49.991Z,109734.22
2023-05-14T11:31:17.983Z,109466.78
2023-05-14T11:33:46.005Z,108624.69
2023-05-14T11:36:14.695Z,107987.63
2023-05-14T11:38:50.564Z,107157.59
2023-05-14T11:41:21.602Z,106556.88
2023-05-14T11:43:50.003Z,106312.56
2023-05-14T11:46:19.138Z,106028.16
2023-05-14T11:48:47.186Z,105816.03
2023-05-14T11:51:15.019Z,105747.88
2023-05-14T11:53:42.841Z,105651.63
2023-05-14T11:56:11.383Z,106152.94
2023-05-14T11:58:41.087Z,106187.13
2023-05-14T12:01:14.577Z,106097.84
2023-05-14T12:03:42.846Z,106219.22
2023-05-14T12:06:11.162Z,106031.31
2023-05-14T12:08:38.952Z,105984.41
2023-05-14T12:11:07.669Z,106902.38
2023-05-14T12:13:37.437Z,107605.44
2023-05-14T12:16:09.927Z,108068.38
2023-05-14T12:18:38.615Z,107504.94
2023-05-14T12:21:08.925Z,106917.78
2023-05-14T12:23:39.686Z,106477.50
2023-05-14T12:26:09.907Z,106154.09
2023-05-14T12:28:43.253Z,105783.06
2023-05-14T12:31:12.809Z,105639.44
2023-05-14T12:33:40.637Z,105553.13
2023-05-14T12:38:41.308Z,105442.78
2023-05-14T12:41:09.088Z,105416.75
2023-05-14T12:43:37.118Z,105243.06
2023-05-14T12:46:05.081Z,105143.66
2023-05-14T12:48:34.483Z,105278.75
2023-05-14T12:51:02.296Z,105809.41
2023-05-14T12:53:30.180Z,106331.66
2023-05-14T12:55:57.969Z,106254.47
2023-05-14T12:58:25.972Z,106088.84
2023-05-14T13:00:53.967Z,106005.19
2023-05-14T13:03:21.952Z,106656.91
2023-05-14T13:05:52.065Z,107464.06
2023-05-14T13:08:21.632Z,108139.28
2023-05-14T13:10:49.423Z,108580.81
2023-05-14T13:13:17.271Z,108522.53
2023-05-14T13:15:46.839Z,108070.53
2023-05-14T13:18:15.065Z,108351.28
2023-05-14T13:20:43.496Z,108552.59
2023-05-14T13:23:12.747Z,108405.88
2023-05-14T13:25:40.559Z,108324.88
2023-05-14T13:28:09.289Z,108486.13
2023-05-14T13:30:37.367Z,108743.75
2023-05-14T13:33:05.728Z,109011.16
2023-05-14T13:35:34.564Z,108726.72
2023-05-14T13:38:02.379Z,108490.44
2023-05-14T13:40:31.533Z,108692.63
2023-05-14T13:42:59.593Z,108688.00
2023-05-14T13:45:27.556Z,108837.53
2023-05-14T13:47:56.714Z,108771.00
2023-05-14T13:50:24.586Z,109050.28
2023-05-14T13:52:52.319Z,108827.50
2023-05-14T13:55:20.130Z,108985.28
2023-05-14T13:57:49.316Z,108753.50
2023-05-14T14:00:17.834Z,108901.19
2023-05-14T14:02:45.784Z,108870.22
2023-05-14T14:05:13.730Z,108804.34
2023-05-14T14:07:41.846Z,108549.97
2023-05-14T14:10:10.937Z,108367.91
2023-05-14T14:12:38.819Z,108255.94
2023-05-14T14:15:09.361Z,108320.34
2023-05-14T14:17:39.022Z,108222.97
2023-05-14T14:20:09.576Z,108442.25
2023-05-14T14:22:38.127Z,108382.94
2023-05-14T14:25:07.277Z,108726.44
2023-05-14T14:27:38.525Z,108774.72
2023-05-14T14:30:15.476Z,108557.78
2023-05-14T14:32:44.797Z,108493.03
2023-05-14T14:35:14.214Z,108340.91
2023-05-14T14:37:42.992Z,108359.94
2023-05-14T14:40:12.032Z,108439.06
2023-05-14T14:42:39.847Z,108503.72
2023-05-14T14:45:10.169Z,108316.06
2023-05-14T14:47:37.969Z,108255.94
2023-05-14T14:50:07.412Z,108120.53
2023-05-14T14:52:36.124Z,108114.06
2023-05-14T14:55:04.120Z,108251.22
2023-05-14T14:57:31.963Z,108049.41
2023-05-14T15:00:01.516Z,108182.13
2023-05-14T15:02:31.789Z,107810.53
2023-05-14T15:04:59.672Z,107928.41
2023-05-14T15:07:32.168Z,107883.88
2023-05-14T15:09:59.997Z,107879.19
2023-05-14T15:12:28.046Z,107948.19
2023-05-14T15:14:56.030Z,107547.19
2023-05-14T15:17:24.238Z,107230.22
2023-05-14T15:19:57.065Z,107453.84
2023-05-14T15:22:25.379Z,107409.31
2023-05-14T15:24:53.246Z,107296.13
2023-05-14T15:27:21.132Z,107276.06
2023-05-14T15:29:48.965Z,107178.31
2023-05-14T15:32:17.817Z,107283.25
2023-05-14T15:34:45.673Z,107252.38
2023-05-14T15:37:14.851Z,107306.56
2023-05-14T15:39:42.686Z,107196.25
2023-05-14T15:42:10.477Z,107140.97
2023-05-14T15:44:38.939Z,107024.28
2023-05-14T15:47:07.427Z,106779.75
2023-05-14T15:49:35.176Z,106582.84
2023-05-14T15:52:03.392Z,106447.66
2023-05-14T15:54:32.570Z,106582.75
2023-05-14T15:57:00.989Z,106687.28
2023-05-14T15:59:28.844Z,106746.78
2023-05-14T16:01:56.737Z,106685.31
2023-05-14T16:04:25.156Z,106795.41
2023-05-14T16:06:52.962Z,106574.38
2023-05-14T16:09:20.744Z,106469.69
2023-05-14T16:11:49.881Z,106466.16
2023-05-14T16:14:18.551Z,106515.56
2023-05-14T16:16:46.383Z,106331.88
2023-05-14T16:19:15.473Z,106249.91
2023-05-14T16:21:43.338Z,106094.28
2023-05-14T16:24:12.825Z,106099.56
2023-05-14T16:26:41.693Z,106204.84
2023-05-14T16:29:10.952Z,105959.19
2023-05-14T16:31:39.192Z,105620.75
2023-05-14T16:34:06.948Z,105139.03
2023-05-14T16:36:34.856Z,104732.19
2023-05-14T16:41:33.408Z,104216.19
2023-05-14T16:44:01.247Z,104028.50
2023-05-14T16:46:30.546Z,103917.41
2023-05-14T16:48:58.537Z,103832.06
2023-05-14T16:51:26.621Z,103771.75
2023-05-14T16:53:55.696Z,103732.47
2023-05-14T16:56:23.940Z,103701.59
2023-05-14T16:58:51.956Z,103617.38
2023-05-14T17:01:19.870Z,103607.41
2023-05-14T17:03:49.791Z,103579.00
2023-05-14T17:06:17.659Z,103541.59
2023-05-14T17:08:45.467Z,103523.06
2023-05-14T17:11:13.357Z,103481.25
2023-05-14T17:13:41.230Z,103472.50
2023-05-14T17:16:09.126Z,103406.13
2023-05-14T17:18:38.047Z,103398.75
2023-05-14T17:21:07.601Z,103358.53
2023-05-14T17:23:35.723Z,103326.16
2023-05-14T17:26:03.685Z,103298.63
2023-05-14T17:28:31.478Z,103239.34
2023-05-14T17:30:59.216Z,103188.94
2023-05-14T17:33:27.375Z,103170.25
2023-05-14T17:35:55.236Z,103140.19
2023-05-14T17:38:25.621Z,103088.00
2023-05-14T17:40:54.291Z,103117.06
2023-05-14T17:43:22.097Z,103065.84
2023-05-14T17:45:54.280Z,103050.94
2023-05-14T17:48:23.104Z,103013.66
2023-05-14T17:50:51.774Z,103000.38
2023-05-14T17:53:19.756Z,102938.50
2023-05-14T17:55:50.326Z,102917.34
2023-05-14T17:58:18.274Z,102847.50
2023-05-14T18:00:46.239Z,102809.59
2023-05-14T18:03:14.760Z,102792.66
2023-05-14T18:05:42.701Z,102750.41
2023-05-14T18:08:10.618Z,102715.00
2023-05-14T18:10:38.529Z,102665.63
2023-05-14T18:13:07.695Z,102606.53
2023-05-14T18:15:36.776Z,102562.59
2023-05-14T18:18:04.823Z,102507.84
2023-05-14T18:20:34.148Z,102467.09
2023-05-14T18:23:03.346Z,102403.59
2023-05-14T18:25:31.285Z,102374.75
2023-05-14T18:27:59.181Z,102300.72
2023-05-14T18:30:28.650Z,102261.97
2023-05-14T18:32:56.434Z,102236.38
2023-05-14T18:35:24.324Z,102184.53
2023-05-14T18:37:52.391Z,102172.16
2023-05-14T18:40:20.705Z,102151.09
2023-05-14T18:42:48.622Z,102088.66
2023-05-14T18:45:16.555Z,102040.19
2023-05-14T18:47:45.991Z,102000.78
2023-05-14T18:50:13.801Z,101963.22
2023-05-14T18:52:41.665Z,101974.38
2023-05-14T18:55:10.258Z,101913.69
2023-05-14T18:57:38.181Z,101856.69
2023-05-14T19:00:07.316Z,101780.41
2023-05-14T19:02:35.680Z,101746.94
2023-05-14T19:05:05.330Z,101643.47
2023-05-14T19:07:33.232Z,101525.31
2023-05-14T19:10:01.214Z,101406.09
2023-05-14T19:12:29.026Z,101241.56
2023-05-14T19:14:56.844Z,101076.94
2023-05-14T19:17:25.221Z,100948.78
2023-05-14T19:19:55.983Z,100829.03
2023-05-14T19:22:25.713Z,100746.16
2023-05-14T19:24:53.499Z,100674.63
2023-05-14T19:27:21.280Z,100580.53
2023-05-14T19:29:50.934Z,100508.19
2023-05-14T19:32:18.814Z,100447.34
2023-05-14T19:34:46.610Z,100484.53
2023-05-14T19:37:14.477Z,100549.94
2023-05-14T19:39:43.686Z,100572.50
2023-05-14T19:42:11.461Z,100552.34
2023-05-14T19:44:39.351Z,100510.75
2023-05-14T19:47:07.655Z,100413.50
2023-05-14T19:49:35.552Z,100338.47
2023-05-14T19:52:03.477Z,100260.19
2023-05-14T19:54:31.337Z,100187.03
2023-05-14T19:57:00.536Z,100108.91
2023-05-14T19:59:29.797Z,100054.09
2023-05-14T20:01:58.104Z,99986.91
2023-05-14T20:04:26.280Z,99957.56
2023-05-14T20:06:54.126Z,99930.75
2023-05-14T20:09:21.926Z,99906.31
2023-05-14T20:11:49.726Z,99873.69
2023-05-14T20:14:19.109Z,99818.81
2023-05-14T20:16:48.986Z,99755.38
2023-05-14T20:19:16.973Z,99712.31
2023-05-14T20:21:44.781Z,99655.78
2023-05-14T20:24:12.643Z,99590.00
2023-05-14T20:26:41.037Z,99544.84
2023-05-14T20:29:10.924Z,99526.66
2023-05-14T20:31:41.398Z,99473.09
2023-05-14T20:34:09.490Z,99398.63
2023-05-14T20:36:37.461Z,99356.19
2023-05-14T20:39:06.166Z,99337.00
2023-05-14T20:41:33.964Z,99326.66
2023-05-14T20:44:01.764Z,99302.59
2023-05-14T20:46:29.731Z,99281.75
2023-05-14T20:49:02.206Z,99228.28
2023-05-14T20:51:30.025Z,99167.88
2023-05-14T20:53:57.815Z,99121.03
2023-05-14T20:56:26.399Z,99103.16
2023-05-14T20:58:54.221Z,99076.44
2023-05-14T21:01:22.671Z,99042.72
2023-05-14T21:03:50.702Z,99034.06
2023-05-14T21:06:20.032Z,99029.75
2023-05-14T21:08:47.801Z,99030.56
2023-05-14T21:11:15.627Z,99014.78
2023-05-14T21:13:44.162Z,98989.78
2023-05-14T21:16:12.832Z,98982.81
2023-05-14T21:18:40.728Z,98982.41
2023-05-14T21:21:08.582Z,98964.94
2023-05-14T21:23:37.683Z,98954.59
2023-05-14T21:26:05.772Z,98925.13
2023-05-14T21:28:33.654Z,98894.00
2023-05-14T21:31:01.475Z,98873.47
2023-05-14T21:33:31.443Z,98841.63
2023-05-14T21:35:59.382Z,98802.84
2023-05-14T21:38:27.468Z,98750.97
2023-05-14T21:40:56.655Z,98703.53
2023-05-14T21:43:24.478Z,98679.41
2023-05-14T21:45:52.275Z,98643.31
2023-05-14T21:48:21.164Z,98593.28
2023-05-14T21:50:49.271Z,98568.34
2023-05-14T21:53:17.128Z,98553.56
2023-05-14T21:55:44.997Z,98566.66
2023-05-14T21:58:14.424Z,98570.00
2023-05-14T22:00:42.307Z,98564.00
2023-05-14T22:03:10.213Z,98554.31
2023-05-14T22:05:38.182Z,98568.34
2023-05-14T22:08:06.718Z,98561.38
2023-05-14T22:10:36.035Z,98549.25
2023-05-14T22:13:03.912Z,98539.09
2023-05-14T22:15:33.099Z,98526.81
2023-05-14T22:18:02.426Z,98545.06
2023-05-14T22:20:30.236Z,98533.78
2023-05-14T22:22:58.041Z,98554.69
2023-05-14T22:25:26.290Z,98577.81
2023-05-14T22:27:54.543Z,98585.63
2023-05-14T22:30:22.564Z,98541.59
2023-05-14T22:32:51.756Z,98502.00
2023-05-14T22:35:19.696Z,98449.53
2023-05-14T22:37:47.461Z,98415.28
2023-05-14T22:40:15.334Z,98385.88
2023-05-14T22:42:43.270Z,98376.56
2023-05-14T22:45:11.518Z,98377.25
2023-05-14T22:47:39.593Z,98344.41
2023-05-14T22:50:11.595Z,98328.28
2023-05-14T22:52:39.807Z,98316.03
2023-05-14T22:55:08.944Z,98313.53
2023-05-14T22:57:36.850Z,98294.56
2023-05-14T23:00:05.604Z,98347.19
2023-05-14T23:02:33.502Z,98361.66
2023-05-14T23:05:01.399Z,98396.47
2023-05-14T23:07:30.673Z,98388.97
2023-05-14T23:09:58.533Z,98400.50
2023-05-14T23:12:26.418Z,98363.31
2023-05-14T23:14:59.140Z,98318.81
2023-05-14T23:17:27.473Z,98265.38
2023-05-14T23:19:55.479Z,98213.28
2023-05-14T23:22:23.393Z,98169.47
2023-05-14T23:24:52.568Z,98117.09
2023-05-14T23:27:20.897Z,98071.34
2023-05-14T23:29:48.808Z,98066.34
2023-05-14T23:32:16.704Z,98031.06
2023-05-14T23:34:44.495Z,98016.66
2023-05-14T23:37:12.545Z,98034.56
2023-05-14T23:39:40.469Z,98035.53
2023-05-14T23:42:09.671Z,98046.63
2023-05-14T23:44:37.610Z,98069.69
2023-05-14T23:47:07.357Z,98088.03
2023-05-14T23:49:36.035Z,98113.59
2023-05-14T23:52:04.155Z,98105.00
2023-05-14T23:54:31.966Z,98126.53
2023-05-14T23:56:59.832Z,98095.53
2023-05-14T23:59:29.142Z,98056.38
